createdAt,value
2022-12-19T00:01:55.596Z,9.00
2022-12-19T00:04:25.937Z,12.50
2022-12-19T00:06:57.808Z,11.50
2022-12-19T00:09:28.654Z,7.50
2022-12-19T00:11:58.763Z,9.25
2022-12-19T00:14:29.114Z,11.00
2022-12-19T00:16:59.460Z,13.50
2022-12-19T00:19:30.179Z,10.75
2022-12-19T00:22:00.299Z,10.75
2022-12-19T00:24:30.497Z,7.75
2022-12-19T00:27:00.612Z,13.75
2022-12-19T00:29:32.485Z,12.00
2022-12-19T00:32:02.525Z,13.00
2022-12-19T00:34:32.934Z,10.00
2022-12-19T00:37:02.979Z,7.75
2022-12-19T00:39:33.158Z,13.25
2022-12-19T00:42:03.251Z,7.25
2022-12-19T00:44:34.400Z,11.00
2022-12-19T00:47:04.546Z,7.00
2022-12-19T00:49:35.516Z,11.50
2022-12-19T00:52:06.976Z,15.25
2022-12-19T00:54:37.729Z,10.75
2022-12-19T00:57:08.318Z,4.50
2022-12-19T00:59:38.485Z,10.25
2022-12-19T01:02:09.049Z,5.50
2022-12-19T01:04:41.783Z,7.00
2022-12-19T01:07:11.424Z,13.00
2022-12-19T01:09:42.059Z,9.50
2022-12-19T01:12:12.793Z,10.75
2022-12-19T01:14:43.135Z,9.00
2022-12-19T01:17:13.470Z,13.75
2022-12-19T01:19:44.749Z,10.25
2022-12-19T01:22:15.339Z,8.00
2022-12-19T01:24:45.787Z,7.25
2022-12-19T01:27:16.025Z,2.25
2022-12-19T01:29:52.690Z,5.50
2022-12-19T01:32:18.605Z,7.00
2022-12-19T01:34:48.966Z,3.50
2022-12-19T01:37:20.222Z,7.25
2022-12-19T01:39:50.751Z,5.00
2022-12-19T01:42:23.365Z,4.00
2022-12-19T01:45:13.626Z,7.00
2022-12-19T01:47:53.855Z,5.00
2022-12-19T01:50:35.782Z,7.75
2022-12-19T01:53:08.963Z,6.50
2022-12-19T01:55:41.377Z,7.25
2022-12-19T01:58:13.679Z,9.75
2022-12-19T02:00:45.511Z,5.00
2022-12-19T02:03:24.911Z,7.00
2022-12-19T02:05:55.805Z,5.50
2022-12-19T02:08:29.161Z,10.00
2022-12-19T02:11:01.048Z,7.00
2022-12-19T02:13:31.670Z,7.75
2022-12-19T02:19:39.739Z,6.50
2022-12-19T02:22:24.776Z,7.25
2022-12-19T02:25:09.439Z,10.75
2022-12-19T02:27:42.625Z,9.50
2022-12-19T02:30:33.712Z,9.00
2022-12-19T02:33:42.748Z,6.25
2022-12-19T02:36:18.683Z,7.25
2022-12-19T02:38:53.824Z,7.25
2022-12-19T02:41:38.961Z,8.50
2022-12-19T02:44:15.239Z,10.00
2022-12-19T02:46:49.013Z,10.00
2022-12-19T02:49:24.188Z,1.00
2022-12-19T02:51:51.834Z,9.75
2022-12-19T02:54:22.700Z,11.00
2022-12-19T02:57:01.719Z,11.25
2022-12-19T02:59:34.889Z,7.00
2022-12-19T03:02:11.147Z,11.75
2022-12-19T03:04:56.521Z,12.25
2022-12-19T03:07:32.495Z,4.75
2022-12-19T03:10:11.654Z,9.00
2022-12-19T03:12:47.516Z,9.50
2022-12-19T03:15:19.533Z,8.75
2022-12-19T03:17:50.616Z,9.75
2022-12-19T03:20:40.318Z,7.50
2022-12-19T03:23:11.728Z,11.00
2022-12-19T03:25:44.703Z,9.50
2022-12-19T03:28:28.268Z,8.75
2022-12-19T03:31:01.184Z,11.00
2022-12-19T03:33:34.199Z,7.00
2022-12-19T03:36:07.518Z,6.00
2022-12-19T03:38:43.055Z,6.75
2022-12-19T03:41:34.022Z,10.00
2022-12-19T03:44:06.742Z,9.00
2022-12-19T03:46:41.868Z,7.25
2022-12-19T03:49:13.401Z,10.00
2022-12-19T03:52:00.925Z,10.50
2022-12-19T03:54:43.077Z,10.00
2022-12-19T03:57:24.220Z,9.00
2022-12-19T04:00:00.003Z,10.75
2022-12-19T04:02:32.798Z,7.25
2022-12-19T04:05:06.494Z,4.00
2022-12-19T04:10:21.805Z,10.50
2022-12-19T04:13:01.054Z,13.75
2022-12-19T04:15:35.582Z,9.50
2022-12-19T04:18:08.724Z,10.00
2022-12-19T04:20:59.666Z,8.25
2022-12-19T04:23:35.325Z,20.25
2022-12-19T04:26:07.466Z,10.00
2022-12-19T04:28:58.324Z,7.25
2022-12-19T04:31:28.973Z,10.00
2022-12-19T04:33:59.338Z,9.75
2022-12-19T04:36:30.647Z,9.75
2022-12-19T04:39:00.809Z,10.25
2022-12-19T04:41:31.039Z,10.50
2022-12-19T04:44:01.331Z,11.25
2022-12-19T04:46:32.245Z,13.00
2022-12-19T04:49:02.493Z,10.00
2022-12-19T04:51:33.469Z,16.75
2022-12-19T04:54:03.847Z,18.50
2022-12-19T04:56:35.614Z,13.00
2022-12-19T04:59:06.476Z,12.50
2022-12-19T05:01:37.035Z,16.00
2022-12-19T05:04:10.216Z,10.75
2022-12-19T05:06:41.134Z,15.25
2022-12-19T05:09:12.008Z,13.00
2022-12-19T05:11:42.183Z,16.25
2022-12-19T05:14:12.657Z,27.25
2022-12-19T05:16:43.390Z,26.00
2022-12-19T05:19:13.655Z,25.00
2022-12-19T05:21:43.978Z,27.75
2022-12-19T05:24:14.252Z,18.25
2022-12-19T05:26:44.421Z,16.25
2022-12-19T05:29:17.122Z,23.00
2022-12-19T05:31:47.530Z,22.75
2022-12-19T05:34:17.862Z,18.00
2022-12-19T05:36:48.690Z,23.50
2022-12-19T05:39:19.247Z,26.25
2022-12-19T05:41:49.646Z,17.75
2022-12-19T05:44:20.017Z,15.25
2022-12-19T05:46:50.438Z,9.75
2022-12-19T05:49:21.876Z,8.25
2022-12-19T05:51:52.947Z,21.50
2022-12-19T05:54:23.783Z,15.25
2022-12-19T05:56:54.205Z,11.50
2022-12-19T05:59:24.703Z,14.00
2022-12-19T06:01:55.529Z,13.00
2022-12-19T06:04:25.963Z,12.75
2022-12-19T06:06:56.818Z,7.75
2022-12-19T06:09:27.623Z,7.00
2022-12-19T06:11:58.268Z,9.00
2022-12-19T06:14:28.739Z,7.50
2022-12-19T06:17:00.296Z,11.00
2022-12-19T06:19:31.166Z,9.25
2022-12-19T06:22:01.948Z,10.00
2022-12-19T06:24:32.424Z,14.50
2022-12-19T06:27:02.762Z,14.50
2022-12-19T06:29:33.177Z,13.00
2022-12-19T06:32:04.104Z,13.75
2022-12-19T06:35:02.669Z,18.00
2022-12-19T06:37:08.428Z,21.25
2022-12-19T06:39:43.450Z,12.75
2022-12-19T06:42:11.157Z,18.00
2022-12-19T06:44:41.379Z,17.00
2022-12-19T06:47:11.615Z,18.00
2022-12-19T06:49:41.883Z,13.00
2022-12-19T06:52:12.172Z,17.00
2022-12-19T06:54:42.477Z,15.25
2022-12-19T06:57:13.438Z,15.75
2022-12-19T06:59:44.242Z,15.00
2022-12-19T07:02:26.729Z,11.75
2022-12-19T07:05:00.131Z,15.25
2022-12-19T07:07:31.259Z,17.50
2022-12-19T07:10:01.768Z,15.50
2022-12-19T07:12:32.565Z,18.50
2022-12-19T07:15:23.519Z,12.25
2022-12-19T07:17:55.424Z,45.00
2022-12-19T07:20:27.604Z,39.25
2022-12-19T07:22:57.859Z,43.50
2022-12-19T07:25:28.209Z,12.50
2022-12-19T07:27:58.723Z,23.50
2022-12-19T07:30:28.983Z,14.75
2022-12-19T07:32:59.419Z,16.75
2022-12-19T07:35:31.123Z,34.00
2022-12-19T07:38:06.273Z,22.25
2022-12-19T07:40:41.621Z,14.00
2022-12-19T07:43:14.940Z,13.25
2022-12-19T07:45:45.335Z,16.75
2022-12-19T07:48:15.659Z,14.00
2022-12-19T07:50:45.879Z,12.75
2022-12-19T07:53:17.032Z,15.50
2022-12-19T07:58:50.690Z,14.50
2022-12-19T08:01:21.115Z,18.50
2022-12-19T08:03:51.606Z,16.00
2022-12-19T08:06:22.353Z,16.25
2022-12-19T08:08:52.976Z,18.75
2022-12-19T08:11:23.436Z,17.75
2022-12-19T08:14:02.699Z,17.00
2022-12-19T08:16:43.908Z,16.00
2022-12-19T08:19:05.106Z,16.00
2022-12-19T08:21:35.476Z,14.25
2022-12-19T08:24:06.083Z,16.25
2022-12-19T08:26:41.917Z,10.25
2022-12-19T08:29:08.331Z,14.25
2022-12-19T08:31:38.702Z,19.50
2022-12-19T08:34:09.536Z,2.50
2022-12-19T08:36:42.397Z,14.25
2022-12-19T08:39:14.300Z,17.50
2022-12-19T08:41:47.615Z,20.75
2022-12-19T08:44:17.975Z,21.25
2022-12-19T08:46:50.551Z,15.50
2022-12-19T08:49:21.640Z,16.25
2022-12-19T08:51:56.916Z,21.50
2022-12-19T08:54:30.344Z,13.00
2022-12-19T08:57:00.722Z,16.00
2022-12-19T08:59:32.265Z,19.50
2022-12-19T09:02:03.079Z,21.25
2022-12-19T09:05:59.415Z,19.50
2022-12-19T09:07:07.831Z,14.25
2022-12-19T09:09:38.116Z,14.00
2022-12-19T09:12:10.184Z,20.00
2022-12-19T09:14:40.971Z,20.25
2022-12-19T09:17:14.572Z,14.00
2022-12-19T09:19:47.939Z,16.75
2022-12-19T09:22:18.178Z,15.00
2022-12-19T09:24:51.631Z,16.00
2022-12-19T09:27:23.528Z,14.00
2022-12-19T09:29:54.153Z,16.50
2022-12-19T09:32:27.451Z,15.00
2022-12-19T09:34:58.436Z,12.50
2022-12-19T09:37:30.197Z,23.00
2022-12-19T09:40:00.493Z,19.75
2022-12-19T09:42:56.530Z,16.50
2022-12-19T09:45:47.529Z,16.75
2022-12-19T09:48:24.481Z,22.00
2022-12-19T09:51:09.335Z,24.75
2022-12-19T09:53:45.473Z,24.75
2022-12-19T09:56:18.918Z,16.75
2022-12-19T09:58:52.060Z,17.00
2022-12-19T10:01:49.068Z,18.25
2022-12-19T10:04:20.169Z,16.00
2022-12-19T10:07:11.699Z,17.50
2022-12-19T10:11:38.652Z,14.00
2022-12-19T10:12:42.832Z,18.25
2022-12-19T10:15:09.236Z,15.75
2022-12-19T10:18:11.761Z,17.75
2022-12-19T10:20:50.591Z,13.50
2022-12-19T10:23:56.896Z,16.75
2022-12-19T10:26:50.719Z,14.25
2022-12-19T10:29:26.321Z,14.00
2022-12-19T10:32:18.903Z,17.00
2022-12-19T10:34:53.492Z,11.75
2022-12-19T10:40:36.923Z,18.25
2022-12-19T10:43:25.594Z,18.00
2022-12-19T10:45:53.158Z,16.00
2022-12-19T10:48:31.848Z,10.50
2022-12-19T10:51:06.555Z,11.50
2022-12-19T10:53:35.064Z,14.00
2022-12-19T10:56:14.263Z,16.50
2022-12-19T10:58:44.721Z,13.50
2022-12-19T11:01:23.939Z,14.75
2022-12-19T11:04:12.568Z,10.50
2022-12-19T11:06:46.183Z,13.00
2022-12-19T11:09:24.580Z,12.00
2022-12-19T11:15:34.160Z,11.00
2022-12-19T11:19:47.886Z,12.00
2022-12-19T11:27:37.363Z,13.33
2022-12-19T11:29:34.397Z,13.50
2022-12-19T11:29:54.648Z,11.75
2022-12-19T11:30:21.352Z,14.50
2022-12-19T11:30:59.414Z,12.00
2022-12-19T11:33:57.904Z,12.25
2022-12-19T11:37:05.880Z,13.00
2022-12-19T11:39:39.664Z,10.75
2022-12-19T11:42:23.943Z,5.00
2022-12-19T11:45:02.972Z,12.25
2022-12-19T11:47:57.285Z,8.00
2022-12-19T11:50:33.150Z,12.25
2022-12-19T11:53:19.125Z,13.50
2022-12-19T11:55:53.723Z,9.00
2022-12-19T11:58:26.909Z,9.50
2022-12-19T12:01:25.591Z,12.50
2022-12-19T12:04:10.129Z,11.00
2022-12-19T12:07:17.972Z,11.50
2022-12-19T12:13:24.522Z,11.00
2022-12-19T12:31:23.392Z,11.50
2022-12-19T12:31:31.630Z,9.50
2022-12-19T12:31:39.618Z,23.50
2022-12-19T12:31:39.752Z,7.00
2022-12-19T12:31:52.360Z,16.25
2022-12-19T12:31:53.910Z,15.00
2022-12-19T12:35:47.061Z,12.25
2022-12-19T12:37:09.779Z,13.75
2022-12-19T12:40:31.369Z,9.00
2022-12-19T12:43:21.379Z,8.25
2022-12-19T12:45:51.848Z,11.25
2022-12-19T12:48:34.114Z,13.50
2022-12-19T12:51:07.292Z,9.25
2022-12-19T12:53:41.466Z,8.00
2022-12-19T12:56:15.095Z,11.00
2022-12-19T12:58:54.064Z,12.25
2022-12-19T13:01:42.718Z,10.00
2022-12-19T13:04:16.248Z,7.50
2022-12-19T13:06:56.012Z,7.75
2022-12-19T13:09:29.838Z,5.00
2022-12-19T13:12:19.699Z,7.00
2022-12-19T13:14:52.557Z,8.25
2022-12-19T13:20:31.772Z,10.00
2022-12-19T13:23:05.474Z,8.00
2022-12-19T13:25:38.857Z,6.00
2022-12-19T13:28:24.399Z,10.75
2022-12-19T13:33:48.028Z,11.75
2022-12-19T13:39:35.963Z,7.75
2022-12-19T13:39:48.316Z,7.75
2022-12-19T13:42:14.738Z,7.75
2022-12-19T13:44:45.223Z,9.25
2022-12-19T13:47:21.937Z,7.75
2022-12-19T13:49:48.672Z,9.75
2022-12-19T13:52:19.280Z,8.25
2022-12-19T13:55:12.916Z,7.75
2022-12-19T13:57:46.532Z,8.00
2022-12-19T14:00:22.408Z,7.25
2022-12-19T14:02:55.050Z,8.50
2022-12-19T14:06:15.879Z,8.50
2022-12-19T14:08:10.453Z,16.25
2022-12-19T14:11:44.271Z,15.00
2022-12-19T14:13:57.508Z,14.00
2022-12-19T14:15:53.865Z,13.75
2022-12-19T14:18:42.672Z,19.00
2022-12-19T14:22:05.443Z,13.00
2022-12-19T14:23:48.767Z,34.00
2022-12-19T14:28:17.936Z,35.50
2022-12-19T14:28:57.210Z,15.50
2022-12-19T14:31:28.505Z,20.00
2022-12-19T14:36:37.241Z,36.00
2022-12-19T14:39:22.536Z,22.00
2022-12-19T14:41:47.409Z,19.50
2022-12-19T14:52:52.358Z,18.50
2022-12-19T14:53:52.316Z,22.00
2022-12-19T14:54:07.206Z,29.25
2022-12-19T14:54:31.520Z,40.25
2022-12-19T14:56:03.861Z,14.00
2022-12-19T14:58:50.817Z,18.75
2022-12-19T15:01:07.186Z,16.75
2022-12-19T15:03:13.824Z,17.00
2022-12-19T15:05:39.432Z,15.25
2022-12-19T15:08:13.345Z,13.00
2022-12-19T15:11:08.478Z,13.50
2022-12-19T15:14:50.494Z,14.50
2022-12-19T15:16:02.950Z,28.00
2022-12-19T15:18:38.090Z,34.00
2022-12-19T15:21:17.497Z,30.25
2022-12-19T15:23:47.999Z,27.00
2022-12-19T15:26:31.057Z,13.25
2022-12-19T15:29:03.337Z,15.75
2022-12-19T15:31:39.933Z,30.00
2022-12-19T15:34:34.082Z,25.75
2022-12-19T15:36:47.056Z,16.50
2022-12-19T15:39:18.413Z,12.50
2022-12-19T15:42:09.607Z,14.50
2022-12-19T15:44:43.903Z,15.75
2022-12-19T15:47:20.516Z,6.50
2022-12-19T15:49:54.086Z,10.00
2022-12-19T15:52:24.766Z,7.00
2022-12-19T15:54:58.721Z,13.25
2022-12-19T15:57:37.817Z,11.50
2022-12-19T16:00:17.499Z,13.00
2022-12-19T16:03:22.957Z,14.50
2022-12-19T16:05:22.876Z,9.00
2022-12-19T16:07:53.309Z,14.75
2022-12-19T16:10:24.068Z,13.50
2022-12-19T16:12:56.812Z,14.00
2022-12-19T16:15:32.721Z,6.00
2022-12-19T16:18:04.260Z,13.75
2022-12-19T16:20:36.443Z,15.00
2022-12-19T16:23:08.255Z,13.00
2022-12-19T16:25:42.478Z,10.50
2022-12-19T16:28:18.969Z,10.50
2022-12-19T16:30:49.822Z,10.00
2022-12-19T16:33:24.977Z,14.50
2022-12-19T16:36:05.772Z,13.00
2022-12-19T16:38:30.253Z,16.50
2022-12-19T16:41:04.377Z,9.50
2022-12-19T16:43:37.850Z,13.00
2022-12-19T16:46:14.367Z,20.50
2022-12-19T16:48:45.345Z,9.50
2022-12-19T16:51:22.520Z,18.75
2022-12-19T16:53:55.639Z,12.75
2022-12-19T16:56:28.831Z,13.50
2022-12-19T17:20:54.102Z,15.00
2022-12-19T17:23:31.067Z,10.00
2022-12-19T17:26:11.405Z,17.25
2022-12-19T17:31:55.726Z,13.50
2022-12-19T17:34:46.607Z,14.75
2022-12-19T17:37:33.696Z,12.75
2022-12-19T17:40:12.403Z,15.75
2022-12-19T17:46:11.104Z,15.00
2022-12-19T17:55:02.716Z,12.25
2022-12-19T18:03:59.269Z,15.50
2022-12-19T18:07:05.967Z,19.50
2022-12-19T18:19:05.757Z,22.25
2022-12-19T18:24:41.235Z,20.00
2022-12-19T18:27:40.891Z,19.00
2022-12-19T18:33:34.203Z,25.25
2022-12-19T18:36:47.932Z,23.75
2022-12-19T18:39:52.384Z,17.00
2022-12-19T18:42:45.015Z,18.75
2022-12-19T18:45:27.742Z,20.50
2022-12-19T18:57:46.083Z,17.50
2022-12-19T19:00:23.073Z,18.75
2022-12-19T19:05:59.757Z,22.00
2022-12-19T19:08:42.657Z,15.75
2022-12-19T19:11:21.061Z,22.00
2022-12-19T19:17:07.700Z,18.50
2022-12-19T19:19:46.856Z,18.00
2022-12-19T19:22:22.580Z,21.25
2022-12-19T19:24:59.709Z,21.50
2022-12-19T19:27:48.207Z,19.50
2022-12-19T19:30:39.361Z,26.00
2022-12-19T19:37:02.158Z,18.25
2022-12-19T19:39:34.752Z,17.00
2022-12-19T19:42:06.057Z,24.00
2022-12-19T19:44:44.388Z,21.00
2022-12-19T19:47:34.376Z,14.75
2022-12-19T19:50:22.851Z,23.50
2022-12-19T19:53:27.816Z,23.00
2022-12-19T20:02:27.049Z,20.25
2022-12-19T20:08:13.563Z,36.25
2022-12-19T20:13:41.091Z,25.00
2022-12-19T20:16:17.874Z,29.25
2022-12-19T20:22:18.511Z,16.00
2022-12-19T20:24:36.832Z,25.00
2022-12-19T20:27:11.753Z,29.50
2022-12-19T20:29:59.475Z,21.75
2022-12-19T20:33:17.330Z,29.50
2022-12-19T20:35:26.593Z,27.75
2022-12-19T20:37:57.310Z,28.25
2022-12-19T20:40:32.152Z,28.25
2022-12-19T20:43:37.632Z,33.00
2022-12-19T20:46:10.969Z,26.25
2022-12-19T20:48:53.203Z,25.75
2022-12-19T20:51:26.970Z,18.00
2022-12-19T20:54:47.028Z,26.00
2022-12-19T20:59:27.236Z,30.25
2022-12-19T21:08:24.492Z,55.75
2022-12-19T21:11:13.606Z,10.00
2022-12-19T21:13:28.353Z,34.75
2022-12-19T21:16:01.417Z,29.75
2022-12-19T21:18:33.352Z,28.25
2022-12-19T21:24:08.000Z,24.25
2022-12-19T21:26:31.438Z,28.00
2022-12-19T21:31:50.758Z,24.50
2022-12-19T21:34:21.840Z,20.50
2022-12-19T21:36:54.186Z,26.00
2022-12-19T21:39:24.575Z,35.00
2022-12-19T21:41:55.299Z,29.00
2022-12-19T21:44:25.731Z,28.50
2022-12-19T21:46:56.283Z,27.00
2022-12-19T21:49:26.606Z,24.25
2022-12-19T21:51:56.957Z,25.25
2022-12-19T21:54:27.316Z,24.25
2022-12-19T21:56:57.611Z,33.50
2022-12-19T21:59:29.737Z,28.00
2022-12-19T22:02:00.329Z,29.00
2022-12-19T22:04:32.317Z,25.50
2022-12-19T22:07:05.566Z,27.50
2022-12-19T22:09:36.401Z,30.25
2022-12-19T22:12:07.130Z,31.50
2022-12-19T22:14:37.561Z,27.50
2022-12-19T22:17:08.038Z,27.75
2022-12-19T22:19:38.461Z,26.50
2022-12-19T22:22:08.996Z,21.25
2022-12-19T22:24:39.649Z,24.50
2022-12-19T22:27:10.881Z,28.00
2022-12-19T22:29:41.823Z,17.75
2022-12-19T22:32:12.241Z,18.75
2022-12-19T22:34:42.729Z,16.00
2022-12-19T22:37:13.301Z,21.25
2022-12-19T22:39:43.776Z,18.25
2022-12-19T22:42:14.188Z,24.50
2022-12-19T22:44:44.809Z,13.00
2022-12-19T22:47:15.001Z,21.50
2022-12-19T22:49:45.717Z,24.00
2022-12-19T22:52:16.378Z,26.00
2022-12-19T22:54:46.828Z,18.75
2022-12-19T22:57:24.967Z,20.50
2022-12-19T22:59:56.922Z,22.00
2022-12-19T23:02:28.453Z,20.00
2022-12-19T23:04:59.106Z,22.25
2022-12-19T23:07:29.713Z,21.00
2022-12-19T23:10:00.247Z,26.00
2022-12-19T23:12:30.799Z,23.00
2022-12-19T23:15:01.319Z,17.00
2022-12-19T23:17:32.078Z,15.75
2022-12-19T23:20:02.887Z,21.00
2022-12-19T23:22:34.195Z,24.00
2022-12-19T23:25:05.246Z,24.00
2022-12-19T23:47:33.818Z,21.00
2022-12-19T23:50:04.384Z,22.00
2022-12-19T23:52:34.809Z,26.00
2022-12-19T23:55:07.276Z,28.00
2022-12-19T23:57:37.750Z,17.50
